createdAt,value
2023-03-21T00:00:42.617Z,94.00
2023-03-21T00:03:09.496Z,94.30
2023-03-21T00:05:43.340Z,94.00
2023-03-21T00:08:10.191Z,94.00
2023-03-21T00:10:42.011Z,94.00
2023-03-21T00:13:23.979Z,94.00
2023-03-21T00:16:05.131Z,94.00
2023-03-21T00:18:41.912Z,93.90
2023-03-21T00:21:39.229Z,93.90
2023-03-21T00:23:57.036Z,93.90
2023-03-21T00:26:23.996Z,93.90
2023-03-21T00:28:50.983Z,93.90
2023-03-21T00:31:20.716Z,93.90
2023-03-21T00:33:49.720Z,93.90
2023-03-21T00:36:16.831Z,93.90
2023-03-21T00:38:43.828Z,93.90
2023-03-21T00:41:23.413Z,93.90
2023-03-21T00:43:58.679Z,94.10
2023-03-21T00:46:39.869Z,93.80
2023-03-21T00:49:09.633Z,93.80
2023-03-21T00:51:36.593Z,93.80
2023-03-21T00:54:05.785Z,93.80
2023-03-21T00:56:32.690Z,93.80
2023-03-21T00:58:59.650Z,93.80
2023-03-21T01:01:31.927Z,93.80
2023-03-21T01:04:04.824Z,93.80
2023-03-21T01:06:32.632Z,93.70
2023-03-21T01:08:59.477Z,93.70
2023-03-21T01:11:27.753Z,93.70
2023-03-21T01:14:04.016Z,93.70
2023-03-21T01:16:34.755Z,93.70
2023-03-21T01:19:04.856Z,93.70
2023-03-21T01:21:32.213Z,93.70
2023-03-21T01:23:59.189Z,93.70
2023-03-21T01:26:26.172Z,93.70
2023-03-21T01:28:53.030Z,93.70
2023-03-21T01:31:20.080Z,93.60
2023-03-21T01:33:47.076Z,93.70
2023-03-21T01:36:23.475Z,93.60
2023-03-21T01:38:52.822Z,93.60
2023-03-21T01:41:42.467Z,93.60
2023-03-21T01:44:17.669Z,93.60
2023-03-21T01:47:00.387Z,93.80
2023-03-21T01:49:41.654Z,93.50
2023-03-21T01:52:33.475Z,93.50
2023-03-21T01:55:03.872Z,93.50
2023-03-21T01:57:58.204Z,93.70
2023-03-21T02:00:32.947Z,93.50
2023-03-21T02:03:29.511Z,93.50
2023-03-21T02:06:13.488Z,93.40
2023-03-21T02:08:43.708Z,93.40
2023-03-21T02:11:14.612Z,93.40
2023-03-21T02:13:43.573Z,93.40
2023-03-21T02:16:28.538Z,93.40
2023-03-21T02:19:07.698Z,93.50
2023-03-21T02:21:46.518Z,93.50
2023-03-21T02:24:59.707Z,93.50
2023-03-21T02:27:28.623Z,93.50
2023-03-21T02:30:49.150Z,93.50
2023-03-21T02:33:45.852Z,93.50
2023-03-21T02:36:34.765Z,93.50
2023-03-21T02:39:30.674Z,93.50
2023-03-21T02:42:17.048Z,93.50
2023-03-21T02:45:30.543Z,93.50
2023-03-21T02:48:06.837Z,93.50
2023-03-21T02:50:42.525Z,93.50
2023-03-21T02:53:10.446Z,93.50
2023-03-21T02:55:37.392Z,93.50
2023-03-21T02:58:12.762Z,93.50
2023-03-21T03:00:44.744Z,93.50
2023-03-21T03:03:24.841Z,93.50
2023-03-21T03:05:59.444Z,93.80
2023-03-21T03:08:45.065Z,93.50
2023-03-21T03:11:25.874Z,93.50
2023-03-21T03:14:42.026Z,93.50
2023-03-21T03:17:22.377Z,93.50
2023-03-21T03:20:19.679Z,93.50
2023-03-21T03:22:59.176Z,93.50
2023-03-21T03:25:50.270Z,93.50
2023-03-21T03:28:19.921Z,93.50
2023-03-21T03:30:57.413Z,93.50
2023-03-21T03:33:38.027Z,93.50
2023-03-21T03:36:07.068Z,93.50
2023-03-21T03:38:36.279Z,93.50
2023-03-21T03:41:08.851Z,93.60
2023-03-21T03:43:59.272Z,93.60
2023-03-21T03:46:36.849Z,93.60
2023-03-21T03:49:24.752Z,93.60
2023-03-21T03:51:54.533Z,93.50
2023-03-21T03:54:42.774Z,93.50
2023-03-21T03:57:09.788Z,93.50
2023-03-21T03:59:37.080Z,93.50
2023-03-21T04:02:20.494Z,93.50
2023-03-21T04:04:52.860Z,93.50
2023-03-21T04:07:21.551Z,93.50
2023-03-21T04:09:50.428Z,93.50
2023-03-21T04:12:19.529Z,93.40
2023-03-21T04:15:10.855Z,93.40
2023-03-21T04:17:46.349Z,93.30
2023-03-21T04:20:20.909Z,93.30
2023-03-21T04:22:54.322Z,93.30
2023-03-21T04:25:32.264Z,93.30
2023-03-21T04:28:00.980Z,93.30
2023-03-21T04:31:01.232Z,93.20
2023-03-21T04:33:38.364Z,93.20
2023-03-21T04:36:09.324Z,93.20
2023-03-21T04:38:36.965Z,93.10
2023-03-21T04:41:04.940Z,93.10
2023-03-21T04:43:32.627Z,93.10
2023-03-21T04:45:59.568Z,93.10
2023-03-21T04:48:26.782Z,93.10
2023-03-21T04:50:54.025Z,93.10
2023-03-21T04:53:20.874Z,93.10
2023-03-21T04:55:49.616Z,93.10
2023-03-21T04:58:20.226Z,93.20
2023-03-21T05:00:47.721Z,93.10
2023-03-21T05:03:19.786Z,93.10
2023-03-21T05:05:48.369Z,93.00
2023-03-21T05:08:15.633Z,93.00
2023-03-21T05:10:43.335Z,93.00
2023-03-21T05:13:10.857Z,93.00
2023-03-21T05:15:38.104Z,93.00
2023-03-21T05:18:11.428Z,92.90
2023-03-21T05:20:54.512Z,92.90
2023-03-21T05:23:22.803Z,92.90
2023-03-21T05:25:50.354Z,92.90
2023-03-21T05:28:23.350Z,92.90
2023-03-21T05:30:50.406Z,92.90
2023-03-21T05:33:17.316Z,93.00
2023-03-21T05:35:44.278Z,93.00
2023-03-21T05:38:12.711Z,93.10
2023-03-21T05:40:50.215Z,93.10
2023-03-21T05:43:17.928Z,93.20
2023-03-21T05:45:45.714Z,93.20
2023-03-21T05:48:12.978Z,93.20
2023-03-21T05:50:57.285Z,93.30
2023-03-21T05:53:24.174Z,93.50
2023-03-21T05:55:51.008Z,93.30
2023-03-21T05:58:37.479Z,93.30
2023-03-21T06:01:06.244Z,93.30
2023-03-21T06:03:35.432Z,93.30
2023-03-21T06:06:06.861Z,93.30
2023-03-21T06:08:38.524Z,93.30
2023-03-21T06:11:23.758Z,93.30
2023-03-21T06:13:54.480Z,93.40
2023-03-21T06:16:22.841Z,93.30
2023-03-21T06:18:49.899Z,93.40
2023-03-21T06:21:32.105Z,93.40
2023-03-21T06:23:58.915Z,93.40
2023-03-21T06:26:25.961Z,93.40
2023-03-21T06:28:54.261Z,93.40
2023-03-21T06:31:25.254Z,93.40
2023-03-21T06:33:54.242Z,93.40
2023-03-21T06:36:21.555Z,93.40
2023-03-21T06:38:49.426Z,93.50
2023-03-21T06:41:17.064Z,93.60
2023-03-21T06:43:51.618Z,93.60
2023-03-21T06:46:18.941Z,93.60
2023-03-21T06:48:45.938Z,93.60
2023-03-21T06:51:13.955Z,93.70
2023-03-21T06:53:50.243Z,93.70
2023-03-21T06:56:25.385Z,93.60
2023-03-21T06:58:52.251Z,93.70
2023-03-21T07:01:39.684Z,93.70
2023-03-21T07:04:07.675Z,93.70
2023-03-21T07:06:34.969Z,93.80
2023-03-21T07:09:02.508Z,93.80
2023-03-21T07:11:32.731Z,93.70
2023-03-21T07:14:00.667Z,93.70
2023-03-21T07:16:27.752Z,93.70
2023-03-21T07:18:54.992Z,93.70
2023-03-21T07:21:22.012Z,93.70
2023-03-21T07:23:50.392Z,93.70
2023-03-21T07:26:18.434Z,93.70
2023-03-21T07:28:45.886Z,93.60
2023-03-21T07:31:13.887Z,93.60
2023-03-21T07:33:41.111Z,93.60
2023-03-21T07:36:13.021Z,93.50
2023-03-21T07:38:41.115Z,93.60
2023-03-21T07:41:11.559Z,93.70
2023-03-21T07:43:39.430Z,93.80
2023-03-21T07:46:09.753Z,93.80
2023-03-21T07:48:38.020Z,93.60
2023-03-21T07:51:06.535Z,93.50
2023-03-21T07:53:35.442Z,93.30
2023-03-21T07:56:02.279Z,93.20
2023-03-21T07:58:29.164Z,93.30
2023-03-21T08:00:56.740Z,93.30
2023-03-21T08:03:24.180Z,93.30
2023-03-21T08:05:51.116Z,93.40
2023-03-21T08:08:18.007Z,93.50
2023-03-21T08:10:44.838Z,93.50
2023-03-21T08:13:12.033Z,93.50
2023-03-21T08:15:42.182Z,93.60
2023-03-21T08:18:09.669Z,93.60
2023-03-21T08:20:36.633Z,93.70
2023-03-21T08:23:05.056Z,93.60
2023-03-21T08:25:33.218Z,93.60
2023-03-21T08:28:00.225Z,93.50
2023-03-21T08:30:28.181Z,93.50
2023-03-21T08:33:01.172Z,93.50
2023-03-21T08:35:28.562Z,93.40
2023-03-21T08:37:55.477Z,93.40
2023-03-21T08:40:22.389Z,93.40
2023-03-21T08:42:49.472Z,93.40
2023-03-21T08:45:16.881Z,93.30
2023-03-21T08:47:43.869Z,93.30
2023-03-21T08:50:15.585Z,93.30
2023-03-21T08:52:43.600Z,93.20
2023-03-21T08:55:11.017Z,93.20
2023-03-21T08:57:39.021Z,93.20
2023-03-21T09:00:17.244Z,93.10
2023-03-21T09:02:47.147Z,93.10
2023-03-21T09:05:14.011Z,93.20
2023-03-21T09:07:41.027Z,92.90
2023-03-21T09:10:23.116Z,92.80
2023-03-21T09:12:51.173Z,92.60
2023-03-21T09:15:20.223Z,92.40
2023-03-21T09:17:50.402Z,92.50
2023-03-21T09:20:21.282Z,92.40
2023-03-21T09:22:49.092Z,92.30
2023-03-21T09:25:16.587Z,92.20
2023-03-21T09:27:45.716Z,92.00
2023-03-21T09:30:17.086Z,91.90
2023-03-21T09:32:47.410Z,91.80
2023-03-21T09:35:19.160Z,91.70
2023-03-21T09:37:47.385Z,91.50
2023-03-21T09:40:22.221Z,91.10
2023-03-21T09:42:56.262Z,90.90
2023-03-21T09:45:26.312Z,90.70
2023-03-21T09:47:54.027Z,90.70
2023-03-21T09:50:27.844Z,90.70
2023-03-21T09:53:10.465Z,90.70
2023-03-21T09:55:39.596Z,90.70
2023-03-21T09:58:20.540Z,90.70
2023-03-21T10:00:49.672Z,90.80
2023-03-21T10:03:23.833Z,90.90
2023-03-21T10:05:58.724Z,90.90
2023-03-21T10:08:37.411Z,90.90
2023-03-21T10:11:04.207Z,90.90
2023-03-21T10:13:36.399Z,90.90
2023-03-21T10:16:36.601Z,90.90
2023-03-21T10:19:05.476Z,90.80
2023-03-21T10:21:58.468Z,90.80
2023-03-21T10:24:20.710Z,90.80
2023-03-21T10:26:47.769Z,90.90
2023-03-21T10:29:15.124Z,90.90
2023-03-21T10:31:42.118Z,90.90
2023-03-21T10:34:33.555Z,90.90
2023-03-21T10:37:01.653Z,90.90
2023-03-21T10:39:32.630Z,90.80
2023-03-21T10:41:59.532Z,90.60
2023-03-21T10:44:35.782Z,90.50
2023-03-21T10:47:08.728Z,90.40
2023-03-21T10:50:06.426Z,90.50
2023-03-21T10:52:27.735Z,90.50
2023-03-21T10:55:05.734Z,90.50
2023-03-21T10:57:32.888Z,90.40
2023-03-21T11:00:00.411Z,90.40
2023-03-21T11:02:35.385Z,90.50
2023-03-21T11:05:23.075Z,90.50
2023-03-21T11:08:01.263Z,90.40
2023-03-21T11:10:39.992Z,90.20
2023-03-21T11:13:18.178Z,89.90
2023-03-21T11:15:45.057Z,89.30
2023-03-21T11:18:19.848Z,89.20
2023-03-21T11:21:06.499Z,88.10
2023-03-21T11:23:34.882Z,87.10
2023-03-21T11:26:02.393Z,86.50
2023-03-21T11:28:42.007Z,85.70
2023-03-21T11:31:09.390Z,85.30
2023-03-21T11:33:44.476Z,85.00
2023-03-21T11:36:20.935Z,84.30
2023-03-21T11:38:52.365Z,83.80
2023-03-21T11:41:33.680Z,83.50
2023-03-21T11:44:01.142Z,82.90
2023-03-21T11:46:29.490Z,83.10
2023-03-21T11:48:56.630Z,83.10
2023-03-21T11:51:51.441Z,83.00
2023-03-21T11:54:19.814Z,82.90
2023-03-21T11:56:57.472Z,83.40
2023-03-21T11:59:43.346Z,83.50
2023-03-21T12:02:14.508Z,83.80
2023-03-21T12:04:54.600Z,84.20
2023-03-21T12:07:34.611Z,84.50
2023-03-21T12:10:16.022Z,84.60
2023-03-21T12:13:16.420Z,84.70
2023-03-21T12:16:00.610Z,84.80
2023-03-21T12:19:06.009Z,85.00
2023-03-21T12:22:11.319Z,85.10
2023-03-21T12:24:45.556Z,85.00
2023-03-21T12:27:24.627Z,85.00
2023-03-21T12:30:10.356Z,85.10
2023-03-21T12:32:41.058Z,85.00
2023-03-21T12:35:46.010Z,84.80
2023-03-21T12:38:32.927Z,84.50
2023-03-21T12:41:12.776Z,84.40
2023-03-21T12:43:42.808Z,84.20
2023-03-21T12:46:29.966Z,84.10
2023-03-21T12:49:00.569Z,83.80
2023-03-21T12:51:33.932Z,83.60
2023-03-21T12:54:22.297Z,83.40
2023-03-21T12:56:57.241Z,83.60
2023-03-21T12:59:47.459Z,83.50
2023-03-21T13:02:30.647Z,83.20
2023-03-21T13:05:18.350Z,82.80
2023-03-21T13:07:50.517Z,82.60
2023-03-21T13:10:21.102Z,82.40
2023-03-21T13:13:27.911Z,82.30
2023-03-21T13:16:01.103Z,82.50
2023-03-21T13:18:40.250Z,82.70
2023-03-21T13:21:18.120Z,82.70
2023-03-21T13:24:01.025Z,82.70
2023-03-21T13:26:41.191Z,82.40
2023-03-21T13:29:22.836Z,82.50
2023-03-21T13:31:52.479Z,82.50
2023-03-21T13:34:23.765Z,82.50
2023-03-21T13:36:51.501Z,82.50
2023-03-21T13:39:20.863Z,82.30
2023-03-21T13:41:49.194Z,82.20
2023-03-21T13:44:51.342Z,82.00
2023-03-21T13:47:41.414Z,81.90
2023-03-21T13:50:17.182Z,82.00
2023-03-21T13:53:01.899Z,82.50
2023-03-21T13:55:36.760Z,81.60
2023-03-21T13:58:23.319Z,81.40
2023-03-21T14:01:12.785Z,80.50
2023-03-21T14:03:39.704Z,78.70
2023-03-21T14:06:07.053Z,77.00
2023-03-21T14:08:37.730Z,75.10
2023-03-21T14:11:07.403Z,73.40
2023-03-21T14:13:38.106Z,72.40
2023-03-21T14:16:14.165Z,70.70
2023-03-21T14:18:54.409Z,68.80
2023-03-21T14:21:24.682Z,67.60
2023-03-21T14:24:03.733Z,67.30
2023-03-21T14:26:35.680Z,66.80
2023-03-21T14:29:12.413Z,65.80
2023-03-21T14:31:42.521Z,65.60
2023-03-21T14:34:09.319Z,66.50
2023-03-21T14:36:40.784Z,66.60
2023-03-21T14:39:32.310Z,66.40
2023-03-21T14:42:11.460Z,66.90
2023-03-21T14:44:53.288Z,68.20
2023-03-21T14:47:23.534Z,69.00
2023-03-21T14:49:50.833Z,69.30
2023-03-21T14:52:24.703Z,69.60
2023-03-21T14:54:51.918Z,68.80
2023-03-21T14:57:29.260Z,68.00
2023-03-21T14:59:59.235Z,65.60
2023-03-21T15:02:34.125Z,64.50
2023-03-21T15:05:10.482Z,64.00
2023-03-21T15:07:37.487Z,63.50
2023-03-21T15:10:07.156Z,62.30
2023-03-21T15:12:34.111Z,61.90
2023-03-21T15:15:01.687Z,62.80
2023-03-21T15:17:28.552Z,63.30
2023-03-21T15:19:55.368Z,64.00
2023-03-21T15:22:37.554Z,64.30
2023-03-21T15:25:06.443Z,64.20
2023-03-21T15:27:35.287Z,64.00
2023-03-21T15:30:02.158Z,63.60
2023-03-21T15:32:29.075Z,63.20
2023-03-21T15:35:03.492Z,62.40
2023-03-21T15:37:33.931Z,61.40
2023-03-21T15:40:20.819Z,60.80
2023-03-21T15:42:47.767Z,60.20
2023-03-21T15:45:25.654Z,59.50
2023-03-21T15:47:55.653Z,58.30
2023-03-21T15:50:42.814Z,58.90
2023-03-21T15:53:16.159Z,59.90
2023-03-21T15:55:50.060Z,60.50
2023-03-21T15:58:18.228Z,61.40
2023-03-21T16:00:57.565Z,62.60
2023-03-21T16:03:28.718Z,63.10
2023-03-21T16:06:10.918Z,63.50
2023-03-21T16:08:43.186Z,63.70
2023-03-21T16:11:17.687Z,63.80
2023-03-21T16:13:44.636Z,62.90
2023-03-21T16:16:28.178Z,62.00
2023-03-21T16:18:56.176Z,60.90
2023-03-21T16:21:25.209Z,60.80
2023-03-21T16:23:52.021Z,60.10
2023-03-21T16:26:20.841Z,59.50
2023-03-21T16:28:47.796Z,58.60
2023-03-21T16:31:21.758Z,58.10
2023-03-21T16:33:48.921Z,57.50
2023-03-21T16:36:18.595Z,57.70
2023-03-21T16:38:46.480Z,57.90
2023-03-21T16:41:16.610Z,58.10
2023-03-21T16:43:43.650Z,58.40
2023-03-21T16:46:15.882Z,59.40
2023-03-21T16:48:43.486Z,59.90
2023-03-21T16:51:18.309Z,60.10
2023-03-21T16:53:45.691Z,59.70
2023-03-21T16:56:23.807Z,60.40
2023-03-21T16:58:51.100Z,60.10
2023-03-21T17:01:19.465Z,60.00
2023-03-21T17:03:48.103Z,59.70
2023-03-21T17:06:16.308Z,59.70
2023-03-21T17:08:43.802Z,59.80
2023-03-21T17:11:16.574Z,59.90
2023-03-21T17:13:43.944Z,60.20
2023-03-21T17:16:12.576Z,61.30
2023-03-21T17:18:39.566Z,62.40
2023-03-21T17:21:23.101Z,63.40
2023-03-21T17:23:51.254Z,64.40
2023-03-21T17:26:26.996Z,65.20
2023-03-21T17:28:55.483Z,65.60
2023-03-21T17:31:23.405Z,65.60
2023-03-21T17:33:50.452Z,65.90
2023-03-21T17:36:38.699Z,66.50
2023-03-21T17:39:08.762Z,67.40
2023-03-21T17:41:35.740Z,68.10
2023-03-21T17:44:03.419Z,68.90
2023-03-21T17:46:30.768Z,69.50
2023-03-21T17:48:57.716Z,70.10
2023-03-21T17:51:30.018Z,70.70
2023-03-21T17:53:57.424Z,71.10
2023-03-21T17:56:29.961Z,71.50
2023-03-21T17:59:01.694Z,72.00
2023-03-21T18:01:30.720Z,72.30
2023-03-21T18:03:58.536Z,72.70
2023-03-21T18:06:26.114Z,73.10
2023-03-21T18:08:53.426Z,74.00
2023-03-21T18:11:20.988Z,73.80
2023-03-21T18:13:48.634Z,74.10
2023-03-21T18:16:20.566Z,74.60
2023-03-21T18:18:47.431Z,75.00
2023-03-21T18:21:18.214Z,75.30
2023-03-21T18:23:46.599Z,75.70
2023-03-21T18:26:16.380Z,75.90
2023-03-21T18:28:43.662Z,76.00
2023-03-21T18:31:19.003Z,76.30
2023-03-21T18:33:47.395Z,76.60
2023-03-21T18:36:16.796Z,76.90
2023-03-21T18:38:43.781Z,77.00
2023-03-21T18:41:11.039Z,77.20
2023-03-21T18:46:25.447Z,77.60
2023-03-21T18:48:52.311Z,77.80
2023-03-21T18:51:19.409Z,77.90
2023-03-21T18:53:46.450Z,78.00
2023-03-21T18:56:46.546Z,78.30
2023-03-21T18:59:01.087Z,78.50
2023-03-21T19:01:28.162Z,78.80
2023-03-21T19:04:20.028Z,79.10
2023-03-21T19:06:47.139Z,79.50
2023-03-21T19:09:14.469Z,79.60
2023-03-21T19:11:44.487Z,79.60
2023-03-21T19:14:12.142Z,79.70
2023-03-21T19:17:07.135Z,79.90
2023-03-21T19:19:26.766Z,79.90
2023-03-21T19:21:53.716Z,80.00
2023-03-21T19:24:27.646Z,80.20
2023-03-21T19:26:55.617Z,80.40
2023-03-21T19:29:22.551Z,80.60
2023-03-21T19:31:52.575Z,80.80
2023-03-21T19:34:19.550Z,81.00
2023-03-21T19:36:51.426Z,81.20
2023-03-21T19:39:22.277Z,81.40
2023-03-21T19:41:50.217Z,81.50
2023-03-21T19:44:17.436Z,81.60
2023-03-21T19:46:44.347Z,81.80
2023-03-21T19:49:11.216Z,81.90
2023-03-21T19:51:38.123Z,82.10
2023-03-21T19:54:05.618Z,82.30
2023-03-21T19:56:34.341Z,82.40
2023-03-21T19:59:02.829Z,82.60
2023-03-21T20:01:30.454Z,82.80
2023-03-21T20:03:57.427Z,82.90
2023-03-21T20:06:24.459Z,83.10
2023-03-21T20:11:40.881Z,83.50
2023-03-21T20:14:07.701Z,83.60
2023-03-21T20:16:36.572Z,83.70
2023-03-21T20:19:05.116Z,83.90
2023-03-21T20:21:40.187Z,84.10
2023-03-21T20:24:09.130Z,84.20
2023-03-21T20:26:37.412Z,84.40
2023-03-21T20:29:48.421Z,84.80
2023-03-21T20:31:53.230Z,85.10
2023-03-21T20:34:21.164Z,85.00
2023-03-21T20:36:48.508Z,85.10
2023-03-21T20:39:15.590Z,85.20
2023-03-21T20:41:42.542Z,85.30
2023-03-21T20:46:57.175Z,85.30
2023-03-21T20:49:24.496Z,85.30
2023-03-21T20:54:38.496Z,85.70
2023-03-21T20:57:05.309Z,85.90
2023-03-21T20:59:32.570Z,86.20
2023-03-21T21:01:59.601Z,86.40
2023-03-21T21:04:46.849Z,86.60
2023-03-21T21:07:17.251Z,86.90
2023-03-21T21:09:45.019Z,86.90
2023-03-21T21:12:12.899Z,86.90
2023-03-21T21:14:40.235Z,86.90
2023-03-21T21:17:26.705Z,86.90
2023-03-21T21:19:54.516Z,86.90
2023-03-21T21:22:21.393Z,86.90
2023-03-21T21:24:48.260Z,86.90
2023-03-21T21:27:15.121Z,86.90
2023-03-21T21:29:43.455Z,86.90
2023-03-21T21:32:11.344Z,86.90
2023-03-21T21:34:38.429Z,86.90
2023-03-21T21:37:05.327Z,86.90
2023-03-21T21:39:37.998Z,87.00
2023-03-21T21:42:05.332Z,87.50
2023-03-21T21:44:32.305Z,87.00
2023-03-21T21:46:59.261Z,87.00
2023-03-21T21:49:26.862Z,87.10
2023-03-21T21:51:53.800Z,87.10
2023-03-21T21:54:20.698Z,87.00
2023-03-21T21:56:54.145Z,87.00
2023-03-21T21:59:22.263Z,87.00
2023-03-21T22:01:51.355Z,87.00
2023-03-21T22:04:19.122Z,86.90
2023-03-21T22:06:47.613Z,86.90
2023-03-21T22:09:15.808Z,87.00
2023-03-21T22:11:42.845Z,87.10
2023-03-21T22:14:09.669Z,87.10
2023-03-21T22:16:36.523Z,87.10
2023-03-21T22:19:03.472Z,87.10
2023-03-21T22:21:30.287Z,87.20
2023-03-21T22:23:57.107Z,87.20
2023-03-21T22:26:24.251Z,87.30
2023-03-21T22:28:51.191Z,87.30
2023-03-21T22:31:18.327Z,87.40
2023-03-21T22:33:45.484Z,87.40
2023-03-21T22:36:12.432Z,87.60
2023-03-21T22:38:42.002Z,87.80
2023-03-21T22:41:09.049Z,88.00
2023-03-21T22:43:35.881Z,87.80
2023-03-21T22:46:03.367Z,87.60
2023-03-21T22:48:30.887Z,87.50
2023-03-21T22:51:00.558Z,87.30
2023-03-21T22:53:27.647Z,87.40
2023-03-21T22:55:54.835Z,87.40
2023-03-21T22:58:21.703Z,87.40
2023-03-21T23:00:48.578Z,87.70
2023-03-21T23:03:16.864Z,87.80
2023-03-21T23:05:44.148Z,87.90
2023-03-21T23:08:11.375Z,88.00
2023-03-21T23:10:39.580Z,87.70
2023-03-21T23:13:06.862Z,87.40
2023-03-21T23:15:33.741Z,87.20
2023-03-21T23:18:00.619Z,86.90
2023-03-21T23:20:27.564Z,87.00
2023-03-21T23:22:54.604Z,87.00
2023-03-21T23:25:21.549Z,87.20
2023-03-21T23:27:48.432Z,87.30
2023-03-21T23:30:15.416Z,87.30
2023-03-21T23:32:42.507Z,87.40
2023-03-21T23:35:09.747Z,87.50
2023-03-21T23:37:36.602Z,87.50
2023-03-21T23:40:06.384Z,87.60
2023-03-21T23:42:34.301Z,87.60
2023-03-21T23:45:01.304Z,87.60
2023-03-21T23:47:28.207Z,87.60
2023-03-21T23:49:55.015Z,87.70
2023-03-21T23:52:21.857Z,87.60
2023-03-21T23:54:48.851Z,87.60
2023-03-21T23:57:17.239Z,87.50
2023-03-21T23:59:46.816Z,87.50
